sensor_id;sensor_type;location;lat;lon;timestamp;temperature;humidity
8008;DHT22;4049;49.468;11.200;2022-11-02T00:01:18;9.30;99.90
8008;DHT22;4049;49.468;11.200;2022-11-02T00:03:46;9.30;99.90
8008;DHT22;4049;49.468;11.200;2022-11-02T00:06:14;9.30;99.90
8008;DHT22;4049;49.468;11.200;2022-11-02T00:08:41;9.30;99.90
8008;DHT22;4049;49.468;11.200;2022-11-02T00:11:08;9.30;99.90
8008;DHT22;4049;49.468;11.200;2022-11-02T00:13:35;9.30;99.90
8008;DHT22;4049;49.468;11.200;2022-11-02T00:16:03;9.30;99.90
8008;DHT22;4049;49.468;11.200;2022-11-02T00:18:31;9.30;99.90
8008;DHT22;4049;49.468;11.200;2022-11-02T00:20:59;9.30;99.90
8008;DHT22;4049;49.468;11.200;2022-11-02T00:23:28;9.30;99.90
8008;DHT22;4049;49.468;11.200;2022-11-02T00:25:56;9.40;99.90
8008;DHT22;4049;49.468;11.200;2022-11-02T00:28:23;9.30;99.90
8008;DHT22;4049;49.468;11.200;2022-11-02T00:30:52;9.40;99.90
8008;DHT22;4049;49.468;11.200;2022-11-02T00:33:19;9.40;99.90
8008;DHT22;4049;49.468;11.200;2022-11-02T00:35:46;9.40;99.90
8008;DHT22;4049;49.468;11.200;2022-11-02T00:38:13;9.40;99.90
8008;DHT22;4049;49.468;11.200;2022-11-02T00:40:41;9.40;99.90
8008;DHT22;4049;49.468;11.200;2022-11-02T00:43:08;9.50;99.90
8008;DHT22;4049;49.468;11.200;2022-11-02T00:45:35;9.50;99.90
8008;DHT22;4049;49.468;11.200;2022-11-02T00:48:02;9.50;99.90
8008;DHT22;4049;49.468;11.200;2022-11-02T00:50:28;9.50;99.90
8008;DHT22;4049;49.468;11.200;2022-11-02T00:52:55;9.40;99.90
8008;DHT22;4049;49.468;11.200;2022-11-02T00:55:22;9.50;99.90
8008;DHT22;4049;49.468;11.200;2022-11-02T00:57:50;9.50;99.90
8008;DHT22;4049;49.468;11.200;2022-11-02T01:00:18;9.50;99.90
8008;DHT22;4049;49.468;11.200;2022-11-02T01:02:45;9.50;99.90
8008;DHT22;4049;49.468;11.200;2022-11-02T01:05:12;9.40;99.90
8008;DHT22;4049;49.468;11.200;2022-11-02T01:07:39;9.40;99.90
8008;DHT22;4049;49.468;11.200;2022-11-02T01:10:07;9.40;99.90
8008;DHT22;4049;49.468;11.200;2022-11-02T01:12:35;9.40;99.90
8008;DHT22;4049;49.468;11.200;2022-11-02T01:15:05;9.30;99.90
8008;DHT22;4049;49.468;11.200;2022-11-02T01:17:32;9.40;99.90
8008;DHT22;4049;49.468;11.200;2022-11-02T01:19:59;9.30;99.90
8008;DHT22;4049;49.468;11.200;2022-11-02T01:22:26;9.30;99.90
8008;DHT22;4049;49.468;11.200;2022-11-02T01:24:53;9.30;99.90
8008;DHT22;4049;49.468;11.200;2022-11-02T01:27:20;9.30;99.90
8008;DHT22;4049;49.468;11.200;2022-11-02T01:29:50;9.30;99.90
8008;DHT22;4049;49.468;11.200;2022-11-02T01:32:18;9.30;99.90
8008;DHT22;4049;49.468;11.200;2022-11-02T01:34:44;9.30;99.90
8008;DHT22;4049;49.468;11.200;2022-11-02T01:37:11;9.20;99.90
8008;DHT22;4049;49.468;11.200;2022-11-02T01:39:38;9.20;99.90
8008;DHT22;4049;49.468;11.200;2022-11-02T01:42:16;9.20;99.90
8008;DHT22;4049;49.468;11.200;2022-11-02T01:44:43;9.20;99.90
8008;DHT22;4049;49.468;11.200;2022-11-02T01:47:17;9.10;99.90
8008;DHT22;4049;49.468;11.200;2022-11-02T01:49:48;9.10;99.90
8008;DHT22;4049;49.468;11.200;2022-11-02T01:52:18;9.10;99.90
8008;DHT22;4049;49.468;11.200;2022-11-02T01:54:50;9.00;99.90
8008;DHT22;4049;49.468;11.200;2022-11-02T01:57:20;9.00;99.90
8008;DHT22;4049;49.468;11.200;2022-11-02T01:59:52;9.00;99.90
8008;DHT22;4049;49.468;11.200;2022-11-02T02:02:21;9.00;99.90
8008;DHT22;4049;49.468;11.200;2022-11-02T02:04:51;9.00;99.90
8008;DHT22;4049;49.468;11.200;2022-11-02T02:07:22;8.90;99.90
8008;DHT22;4049;49.468;11.200;2022-11-02T02:09:51;8.90;99.90
8008;DHT22;4049;49.468;11.200;2022-11-02T02:12:18;8.90;99.90
8008;DHT22;4049;49.468;11.200;2022-11-02T02:14:46;8.90;99.90
8008;DHT22;4049;49.468;11.200;2022-11-02T02:17:25;8.80;99.90
8008;DHT22;4049;49.468;11.200;2022-11-02T02:20:00;8.70;99.90
8008;DHT22;4049;49.468;11.200;2022-11-02T02:25:51;8.60;99.90
8008;DHT22;4049;49.468;11.200;2022-11-02T02:28:29;8.50;99.90
8008;DHT22;4049;49.468;11.200;2022-11-02T02:31:02;8.50;99.90
8008;DHT22;4049;49.468;11.200;2022-11-02T02:33:33;8.40;99.90
8008;DHT22;4049;49.468;11.200;2022-11-02T02:36:05;8.40;99.90
8008;DHT22;4049;49.468;11.200;2022-11-02T02:38:40;8.40;99.90
8008;DHT22;4049;49.468;11.200;2022-11-02T02:41:11;8.40;99.90
8008;DHT22;4049;49.468;11.200;2022-11-02T02:43:43;8.40;99.90
8008;DHT22;4049;49.468;11.200;2022-11-02T02:46:16;8.30;99.90
8008;DHT22;4049;49.468;11.200;2022-11-02T02:48:45;8.30;99.90
8008;DHT22;4049;49.468;11.200;2022-11-02T02:51:17;8.40;99.90
8008;DHT22;4049;49.468;11.200;2022-11-02T02:53:47;8.40;99.90
8008;DHT22;4049;49.468;11.200;2022-11-02T02:56:17;8.40;99.90
8008;DHT22;4049;49.468;11.200;2022-11-02T02:58:49;8.40;99.90
8008;DHT22;4049;49.468;11.200;2022-11-02T03:01:17;8.40;99.90
8008;DHT22;4049;49.468;11.200;2022-11-02T03:03:46;8.40;99.90
8008;DHT22;4049;49.468;11.200;2022-11-02T03:06:18;8.30;99.90
8008;DHT22;4049;49.468;11.200;2022-11-02T03:08:51;8.30;99.90
8008;DHT22;4049;49.468;11.200;2022-11-02T03:11:21;8.30;99.90
8008;DHT22;4049;49.468;11.200;2022-11-02T03:14:05;8.20;99.90
8008;DHT22;4049;49.468;11.200;2022-11-02T03:16:43;8.20;99.90
8008;DHT22;4049;49.468;11.200;2022-11-02T03:19:19;8.10;99.90
8008;DHT22;4049;49.468;11.200;2022-11-02T03:21:54;8.10;99.90
8008;DHT22;4049;49.468;11.200;2022-11-02T03:24:26;8.00;99.90
8008;DHT22;4049;49.468;11.200;2022-11-02T03:27:03;8.00;99.90
8008;DHT22;4049;49.468;11.200;2022-11-02T03:29:38;7.90;99.90
8008;DHT22;4049;49.468;11.200;2022-11-02T03:32:10;7.90;99.90
8008;DHT22;4049;49.468;11.200;2022-11-02T03:34:39;7.80;99.90
8008;DHT22;4049;49.468;11.200;2022-11-02T03:37:12;7.80;99.90
8008;DHT22;4049;49.468;11.200;2022-11-02T03:39:42;7.70;99.90
8008;DHT22;4049;49.468;11.200;2022-11-02T03:42:13;7.70;99.90
8008;DHT22;4049;49.468;11.200;2022-11-02T03:44:44;7.60;99.90
8008;DHT22;4049;49.468;11.200;2022-11-02T03:47:15;7.60;99.90
8008;DHT22;4049;49.468;11.200;2022-11-02T03:49:45;7.60;99.90
8008;DHT22;4049;49.468;11.200;2022-11-02T03:52:17;7.50;99.90
8008;DHT22;4049;49.468;11.200;2022-11-02T03:54:50;7.50;99.90
8008;DHT22;4049;49.468;11.200;2022-11-02T03:57:26;7.40;99.90
8008;DHT22;4049;49.468;11.200;2022-11-02T04:00:07;7.30;99.90
8008;DHT22;4049;49.468;11.200;2022-11-02T04:02:35;7.30;99.90
8008;DHT22;4049;49.468;11.200;2022-11-02T04:05:03;7.30;99.90
8008;DHT22;4049;49.468;11.200;2022-11-02T04:07:33;7.30;99.90
8008;DHT22;4049;49.468;11.200;2022-11-02T04:10:15;7.30;99.90
8008;DHT22;4049;49.468;11.200;2022-11-02T04:12:42;7.20;99.90
8008;DHT22;4049;49.468;11.200;2022-11-02T04:15:28;7.20;99.90
8008;DHT22;4049;49.468;11.200;2022-11-02T04:17:55;7.10;99.90
8008;DHT22;4049;49.468;11.200;2022-11-02T04:20:39;7.10;99.90
8008;DHT22;4049;49.468;11.200;2022-11-02T04:23:06;7.10;99.90
8008;DHT22;4049;49.468;11.200;2022-11-02T04:25:52;7.10;99.90
8008;DHT22;4049;49.468;11.200;2022-11-02T04:28:19;7.00;99.90
8008;DHT22;4049;49.468;11.200;2022-11-02T04:30:49;7.00;99.90
8008;DHT22;4049;49.468;11.200;2022-11-02T04:33:15;7.00;99.90
8008;DHT22;4049;49.468;11.200;2022-11-02T04:36:00;6.90;99.90
8008;DHT22;4049;49.468;11.200;2022-11-02T04:38:28;6.90;99.90
8008;DHT22;4049;49.468;11.200;2022-11-02T04:41:07;6.90;99.90
8008;DHT22;4049;49.468;11.200;2022-11-02T04:43:52;6.90;99.90
8008;DHT22;4049;49.468;11.200;2022-11-02T04:46:21;6.80;99.90
8008;DHT22;4049;49.468;11.200;2022-11-02T04:48:49;6.80;99.90
8008;DHT22;4049;49.468;11.200;2022-11-02T04:51:15;6.80;99.90
8008;DHT22;4049;49.468;11.200;2022-11-02T04:53:42;6.80;99.90
8008;DHT22;4049;49.468;11.200;2022-11-02T04:56:10;6.70;99.90
8008;DHT22;4049;49.468;11.200;2022-11-02T04:58:37;6.70;99.90
8008;DHT22;4049;49.468;11.200;2022-11-02T05:01:04;6.70;99.90
8008;DHT22;4049;49.468;11.200;2022-11-02T05:03:33;6.70;99.90
8008;DHT22;4049;49.468;11.200;2022-11-02T05:06:00;6.70;99.90
8008;DHT22;4049;49.468;11.200;2022-11-02T05:08:27;6.70;99.90
8008;DHT22;4049;49.468;11.200;2022-11-02T05:10:54;6.70;99.90
8008;DHT22;4049;49.468;11.200;2022-11-02T05:13:21;6.70;99.90
8008;DHT22;4049;49.468;11.200;2022-11-02T05:15:48;6.70;99.90
8008;DHT22;4049;49.468;11.200;2022-11-02T05:18:15;6.70;99.90
8008;DHT22;4049;49.468;11.200;2022-11-02T05:20:48;6.70;99.90
8008;DHT22;4049;49.468;11.200;2022-11-02T05:23:15;6.70;99.90
8008;DHT22;4049;49.468;11.200;2022-11-02T05:25:42;6.70;99.90
8008;DHT22;4049;49.468;11.200;2022-11-02T05:28:09;6.70;99.90
8008;DHT22;4049;49.468;11.200;2022-11-02T05:30:36;6.70;99.90
8008;DHT22;4049;49.468;11.200;2022-11-02T05:33:03;6.70;99.90
8008;DHT22;4049;49.468;11.200;2022-11-02T05:35:29;6.70;99.90
8008;DHT22;4049;49.468;11.200;2022-11-02T05:37:57;6.70;99.90
8008;DHT22;4049;49.468;11.200;2022-11-02T05:40:24;6.60;99.90
8008;DHT22;4049;49.468;11.200;2022-11-02T05:42:53;6.60;99.90
8008;DHT22;4049;49.468;11.200;2022-11-02T05:45:23;6.60;99.90
8008;DHT22;4049;49.468;11.200;2022-11-02T05:47:50;6.60;99.90
8008;DHT22;4049;49.468;11.200;2022-11-02T05:50:17;6.60;99.90
8008;DHT22;4049;49.468;11.200;2022-11-02T05:52:44;6.60;99.90
8008;DHT22;4049;49.468;11.200;2022-11-02T05:55:13;6.60;99.90
8008;DHT22;4049;49.468;11.200;2022-11-02T05:57:39;6.60;99.90
8008;DHT22;4049;49.468;11.200;2022-11-02T06:00:08;6.60;99.90
8008;DHT22;4049;49.468;11.200;2022-11-02T06:02:36;6.60;99.90
8008;DHT22;4049;49.468;11.200;2022-11-02T06:05:03;6.60;99.90
8008;DHT22;4049;49.468;11.200;2022-11-02T06:07:30;6.60;99.90
8008;DHT22;4049;49.468;11.200;2022-11-02T06:09:57;6.70;99.90
8008;DHT22;4049;49.468;11.200;2022-11-02T06:12:25;6.70;99.90
8008;DHT22;4049;49.468;11.200;2022-11-02T06:14:52;6.70;99.90
8008;DHT22;4049;49.468;11.200;2022-11-02T06:17:19;6.70;99.90
8008;DHT22;4049;49.468;11.200;2022-11-02T06:19:45;6.70;99.90
8008;DHT22;4049;49.468;11.200;2022-11-02T06:22:12;6.80;99.90
8008;DHT22;4049;49.468;11.200;2022-11-02T06:24:39;6.80;99.90
8008;DHT22;4049;49.468;11.200;2022-11-02T06:27:06;6.80;99.90
8008;DHT22;4049;49.468;11.200;2022-11-02T06:29:34;6.80;99.90
8008;DHT22;4049;49.468;11.200;2022-11-02T06:32:01;6.80;99.90
8008;DHT22;4049;49.468;11.200;2022-11-02T06:34:28;6.80;99.90
8008;DHT22;4049;49.468;11.200;2022-11-02T06:36:55;6.80;99.90
8008;DHT22;4049;49.468;11.200;2022-11-02T06:39:21;6.80;99.90
8008;DHT22;4049;49.468;11.200;2022-11-02T06:41:49;6.80;99.90
8008;DHT22;4049;49.468;11.200;2022-11-02T06:44:17;6.90;99.90
8008;DHT22;4049;49.468;11.200;2022-11-02T06:46:45;6.90;99.90
8008;DHT22;4049;49.468;11.200;2022-11-02T06:49:12;6.90;99.90
8008;DHT22;4049;49.468;11.200;2022-11-02T06:51:38;7.00;99.90
8008;DHT22;4049;49.468;11.200;2022-11-02T06:54:05;7.00;99.90
8008;DHT22;4049;49.468;11.200;2022-11-02T06:56:32;7.00;99.90
8008;DHT22;4049;49.468;11.200;2022-11-02T06:58:59;7.00;99.90
8008;DHT22;4049;49.468;11.200;2022-11-02T07:01:26;7.00;99.90
8008;DHT22;4049;49.468;11.200;2022-11-02T07:03:54;7.10;99.90
8008;DHT22;4049;49.468;11.200;2022-11-02T07:06:21;7.10;99.90
8008;DHT22;4049;49.468;11.200;2022-11-02T07:08:48;7.10;99.90
8008;DHT22;4049;49.468;11.200;2022-11-02T07:11:14;7.10;99.90
8008;DHT22;4049;49.468;11.200;2022-11-02T07:13:41;7.20;99.90
8008;DHT22;4049;49.468;11.200;2022-11-02T07:16:08;7.20;99.90
8008;DHT22;4049;49.468;11.200;2022-11-02T07:18:37;7.30;99.90
8008;DHT22;4049;49.468;11.200;2022-11-02T07:21:06;7.30;99.90
8008;DHT22;4049;49.468;11.200;2022-11-02T07:23:34;7.30;99.90
8008;DHT22;4049;49.468;11.200;2022-11-02T07:26:01;7.40;99.90
8008;DHT22;4049;49.468;11.200;2022-11-02T07:28:29;7.50;99.90
8008;DHT22;4049;49.468;11.200;2022-11-02T07:30:56;7.60;99.90
8008;DHT22;4049;49.468;11.200;2022-11-02T07:33:23;7.70;99.90
8008;DHT22;4049;49.468;11.200;2022-11-02T07:35:49;7.80;99.90
8008;DHT22;4049;49.468;11.200;2022-11-02T07:38:18;7.90;99.90
8008;DHT22;4049;49.468;11.200;2022-11-02T07:40:48;8.00;99.90
8008;DHT22;4049;49.468;11.200;2022-11-02T07:43:15;8.10;99.90
8008;DHT22;4049;49.468;11.200;2022-11-02T07:45:42;8.20;99.90
8008;DHT22;4049;49.468;11.200;2022-11-02T07:48:08;8.30;99.90
8008;DHT22;4049;49.468;11.200;2022-11-02T07:50:35;8.40;99.90
8008;DHT22;4049;49.468;11.200;2022-11-02T07:53:02;8.50;99.90
8008;DHT22;4049;49.468;11.200;2022-11-02T07:55:30;8.60;99.90
8008;DHT22;4049;49.468;11.200;2022-11-02T07:57:59;8.70;99.90
8008;DHT22;4049;49.468;11.200;2022-11-02T08:00:29;8.80;99.90
8008;DHT22;4049;49.468;11.200;2022-11-02T08:02:57;8.90;99.90
8008;DHT22;4049;49.468;11.200;2022-11-02T08:05:29;8.90;99.90
8008;DHT22;4049;49.468;11.200;2022-11-02T08:07:56;9.00;99.90
8008;DHT22;4049;49.468;11.200;2022-11-02T08:10:23;9.10;99.90
8008;DHT22;4049;49.468;11.200;2022-11-02T08:12:52;9.30;99.90
8008;DHT22;4049;49.468;11.200;2022-11-02T08:15:19;9.40;99.90
8008;DHT22;4049;49.468;11.200;2022-11-02T08:17:46;9.40;99.90
8008;DHT22;4049;49.468;11.200;2022-11-02T08:20:13;9.60;99.90
8008;DHT22;4049;49.468;11.200;2022-11-02T08:22:40;9.70;99.90
8008;DHT22;4049;49.468;11.200;2022-11-02T08:25:07;9.80;99.90
8008;DHT22;4049;49.468;11.200;2022-11-02T08:27:34;9.90;99.90
8008;DHT22;4049;49.468;11.200;2022-11-02T08:30:03;10.00;99.90
8008;DHT22;4049;49.468;11.200;2022-11-02T08:32:30;10.10;99.90
8008;DHT22;4049;49.468;11.200;2022-11-02T08:34:57;10.20;99.90
8008;DHT22;4049;49.468;11.200;2022-11-02T08:37:24;10.20;99.90
8008;DHT22;4049;49.468;11.200;2022-11-02T08:39:51;10.30;99.90
8008;DHT22;4049;49.468;11.200;2022-11-02T08:42:18;10.40;99.90
8008;DHT22;4049;49.468;11.200;2022-11-02T08:44:45;10.50;99.90
8008;DHT22;4049;49.468;11.200;2022-11-02T08:47:13;10.60;99.90
8008;DHT22;4049;49.468;11.200;2022-11-02T08:49:42;10.70;99.90
8008;DHT22;4049;49.468;11.200;2022-11-02T08:52:09;10.80;99.90
8008;DHT22;4049;49.468;11.200;2022-11-02T08:54:35;10.90;99.90
8008;DHT22;4049;49.468;11.200;2022-11-02T08:57:02;11.10;99.90
8008;DHT22;4049;49.468;11.200;2022-11-02T08:59:29;11.20;99.90
8008;DHT22;4049;49.468;11.200;2022-11-02T09:01:56;11.20;99.90
8008;DHT22;4049;49.468;11.200;2022-11-02T09:04:25;11.30;99.90
8008;DHT22;4049;49.468;11.200;2022-11-02T09:06:52;11.30;99.90
8008;DHT22;4049;49.468;11.200;2022-11-02T09:09:19;11.40;99.90
8008;DHT22;4049;49.468;11.200;2022-11-02T09:11:48;11.40;99.90
8008;DHT22;4049;49.468;11.200;2022-11-02T09:14:15;11.40;99.90
8008;DHT22;4049;49.468;11.200;2022-11-02T09:16:42;11.40;99.90
8008;DHT22;4049;49.468;11.200;2022-11-02T09:19:09;11.40;99.90
8008;DHT22;4049;49.468;11.200;2022-11-02T09:21:37;11.40;99.90
8008;DHT22;4049;49.468;11.200;2022-11-02T09:24:04;11.40;99.90
8008;DHT22;4049;49.468;11.200;2022-11-02T09:26:31;11.30;99.90
8008;DHT22;4049;49.468;11.200;2022-11-02T09:28:58;11.30;99.90
8008;DHT22;4049;49.468;11.200;2022-11-02T09:31:25;11.40;99.90
8008;DHT22;4049;49.468;11.200;2022-11-02T09:33:53;11.40;99.90
8008;DHT22;4049;49.468;11.200;2022-11-02T09:36:20;11.50;99.90
8008;DHT22;4049;49.468;11.200;2022-11-02T09:38:49;11.50;99.90
8008;DHT22;4049;49.468;11.200;2022-11-02T09:41:22;11.60;99.90
8008;DHT22;4049;49.468;11.200;2022-11-02T09:43:55;11.70;99.90
8008;DHT22;4049;49.468;11.200;2022-11-02T09:46:28;11.70;99.90
8008;DHT22;4049;49.468;11.200;2022-11-02T09:48:58;11.80;99.90
8008;DHT22;4049;49.468;11.200;2022-11-02T09:51:30;11.80;99.90
8008;DHT22;4049;49.468;11.200;2022-11-02T09:54:06;12.00;99.90
8008;DHT22;4049;49.468;11.200;2022-11-02T09:56:34;12.10;99.90
8008;DHT22;4049;49.468;11.200;2022-11-02T09:59:03;12.10;99.90
8008;DHT22;4049;49.468;11.200;2022-11-02T10:02:03;12.30;99.90
8008;DHT22;4049;49.468;11.200;2022-11-02T10:05:04;12.40;99.90
8008;DHT22;4049;49.468;11.200;2022-11-02T10:07:50;12.50;99.90
8008;DHT22;4049;49.468;11.200;2022-11-02T10:10:27;12.60;99.90
8008;DHT22;4049;49.468;11.200;2022-11-02T10:13:01;12.80;99.90
8008;DHT22;4049;49.468;11.200;2022-11-02T10:15:36;12.90;99.90
8008;DHT22;4049;49.468;11.200;2022-11-02T10:18:08;13.00;99.90
8008;DHT22;4049;49.468;11.200;2022-11-02T10:20:40;13.00;99.90
8008;DHT22;4049;49.468;11.200;2022-11-02T10:23:13;13.10;99.90
8008;DHT22;4049;49.468;11.200;2022-11-02T10:25:45;13.20;99.90
8008;DHT22;4049;49.468;11.200;2022-11-02T10:28:15;13.20;99.90
8008;DHT22;4049;49.468;11.200;2022-11-02T10:30:43;13.30;99.90
8008;DHT22;4049;49.468;11.200;2022-11-02T10:33:14;13.30;99.90
8008;DHT22;4049;49.468;11.200;2022-11-02T10:35:47;13.40;99.90
8008;DHT22;4049;49.468;11.200;2022-11-02T10:38:26;13.40;99.90
8008;DHT22;4049;49.468;11.200;2022-11-02T10:41:11;13.40;99.90
8008;DHT22;4049;49.468;11.200;2022-11-02T10:43:55;13.40;99.90
8008;DHT22;4049;49.468;11.200;2022-11-02T10:46:37;13.40;99.90
8008;DHT22;4049;49.468;11.200;2022-11-02T10:49:12;13.50;99.90
8008;DHT22;4049;49.468;11.200;2022-11-02T10:51:40;13.40;99.90
8008;DHT22;4049;49.468;11.200;2022-11-02T10:54:11;13.40;99.90
8008;DHT22;4049;49.468;11.200;2022-11-02T10:56:40;13.40;99.90
8008;DHT22;4049;49.468;11.200;2022-11-02T10:59:11;13.50;99.90
8008;DHT22;4049;49.468;11.200;2022-11-02T11:01:44;13.50;99.90
8008;DHT22;4049;49.468;11.200;2022-11-02T11:04:20;13.60;99.90
8008;DHT22;4049;49.468;11.200;2022-11-02T11:06:47;13.70;99.90
8008;DHT22;4049;49.468;11.200;2022-11-02T11:09:15;13.70;99.90
8008;DHT22;4049;49.468;11.200;2022-11-02T11:11:53;13.70;99.90
8008;DHT22;4049;49.468;11.200;2022-11-02T11:14:21;13.70;99.90
8008;DHT22;4049;49.468;11.200;2022-11-02T11:16:50;13.70;99.90
8008;DHT22;4049;49.468;11.200;2022-11-02T11:19:21;13.70;99.90
8008;DHT22;4049;49.468;11.200;2022-11-02T11:21:49;13.70;99.90
8008;DHT22;4049;49.468;11.200;2022-11-02T11:24:24;13.70;99.90
8008;DHT22;4049;49.468;11.200;2022-11-02T11:27:14;13.80;99.90
8008;DHT22;4049;49.468;11.200;2022-11-02T11:29:51;13.90;99.90
8008;DHT22;4049;49.468;11.200;2022-11-02T11:32:20;13.90;99.90
8008;DHT22;4049;49.468;11.200;2022-11-02T11:34:53;14.00;99.90
8008;DHT22;4049;49.468;11.200;2022-11-02T11:37:20;14.00;99.90
8008;DHT22;4049;49.468;11.200;2022-11-02T11:39:51;14.10;99.90
8008;DHT22;4049;49.468;11.200;2022-11-02T11:42:21;14.20;99.90
8008;DHT22;4049;49.468;11.200;2022-11-02T11:44:55;14.20;99.90
8008;DHT22;4049;49.468;11.200;2022-11-02T11:47:29;14.30;99.90
8008;DHT22;4049;49.468;11.200;2022-11-02T11:49:59;14.30;99.90
8008;DHT22;4049;49.468;11.200;2022-11-02T11:52:29;14.40;99.90
8008;DHT22;4049;49.468;11.200;2022-11-02T11:54:58;14.50;99.90
8008;DHT22;4049;49.468;11.200;2022-11-02T11:57:29;14.50;99.90
8008;DHT22;4049;49.468;11.200;2022-11-02T11:59:57;14.60;99.90
8008;DHT22;4049;49.468;11.200;2022-11-02T12:02:28;14.60;99.90
8008;DHT22;4049;49.468;11.200;2022-11-02T12:05:00;14.60;99.90
8008;DHT22;4049;49.468;11.200;2022-11-02T12:07:48;14.60;99.90
8008;DHT22;4049;49.468;11.200;2022-11-02T12:10:21;14.70;99.90
8008;DHT22;4049;49.468;11.200;2022-11-02T12:13:01;14.70;99.90
8008;DHT22;4049;49.468;11.200;2022-11-02T12:15:48;14.70;99.90
8008;DHT22;4049;49.468;11.200;2022-11-02T12:18:29;14.80;99.90
8008;DHT22;4049;49.468;11.200;2022-11-02T12:21:11;14.70;99.90
8008;DHT22;4049;49.468;11.200;2022-11-02T12:23:57;14.60;99.90
8008;DHT22;4049;49.468;11.200;2022-11-02T12:26:33;14.60;99.90
8008;DHT22;4049;49.468;11.200;2022-11-02T12:29:15;14.50;99.90
8008;DHT22;4049;49.468;11.200;2022-11-02T12:31:44;14.40;99.90
8008;DHT22;4049;49.468;11.200;2022-11-02T12:34:34;14.30;99.90
8008;DHT22;4049;49.468;11.200;2022-11-02T12:37:12;14.30;99.90
8008;DHT22;4049;49.468;11.200;2022-11-02T12:40:06;14.10;99.90
8008;DHT22;4049;49.468;11.200;2022-11-02T12:42:46;14.00;99.90
8008;DHT22;4049;49.468;11.200;2022-11-02T12:45:23;14.00;99.90
8008;DHT22;4049;49.468;11.200;2022-11-02T12:47:55;13.90;99.90
8008;DHT22;4049;49.468;11.200;2022-11-02T12:50:31;13.80;99.90
8008;DHT22;4049;49.468;11.200;2022-11-02T12:53:11;13.80;99.90
8008;DHT22;4049;49.468;11.200;2022-11-02T12:55:42;13.80;99.90
8008;DHT22;4049;49.468;11.200;2022-11-02T12:58:16;13.80;99.90
8008;DHT22;4049;49.468;11.200;2022-11-02T13:00:50;13.80;99.90
8008;DHT22;4049;49.468;11.200;2022-11-02T13:03:27;13.80;99.90
8008;DHT22;4049;49.468;11.200;2022-11-02T13:06:00;13.90;99.90
8008;DHT22;4049;49.468;11.200;2022-11-02T13:08:35;13.90;99.90
8008;DHT22;4049;49.468;11.200;2022-11-02T13:11:09;13.90;99.90
8008;DHT22;4049;49.468;11.200;2022-11-02T13:13:43;14.00;99.90
8008;DHT22;4049;49.468;11.200;2022-11-02T13:16:13;14.10;99.90
8008;DHT22;4049;49.468;11.200;2022-11-02T13:18:43;14.20;99.90
8008;DHT22;4049;49.468;11.200;2022-11-02T13:21:15;14.20;99.90
8008;DHT22;4049;49.468;11.200;2022-11-02T13:23:48;14.30;99.90
8008;DHT22;4049;49.468;11.200;2022-11-02T13:26:25;14.30;99.90
8008;DHT22;4049;49.468;11.200;2022-11-02T13:28:55;14.30;99.90
8008;DHT22;4049;49.468;11.200;2022-11-02T13:31:28;14.30;99.90
8008;DHT22;4049;49.468;11.200;2022-11-02T13:33:59;14.40;99.90
8008;DHT22;4049;49.468;11.200;2022-11-02T13:36:26;14.30;99.90
8008;DHT22;4049;49.468;11.200;2022-11-02T13:38:59;14.30;99.90
8008;DHT22;4049;49.468;11.200;2022-11-02T13:41:45;14.30;99.90
8008;DHT22;4049;49.468;11.200;2022-11-02T13:44:29;14.30;99.90
8008;DHT22;4049;49.468;11.200;2022-11-02T13:47:18;14.30;99.90
8008;DHT22;4049;49.468;11.200;2022-11-02T13:49:51;14.20;99.90
8008;DHT22;4049;49.468;11.200;2022-11-02T13:52:21;14.30;99.90
8008;DHT22;4049;49.468;11.200;2022-11-02T13:54:52;14.40;99.90
8008;DHT22;4049;49.468;11.200;2022-11-02T13:57:30;14.40;99.90
8008;DHT22;4049;49.468;11.200;2022-11-02T14:00:03;14.60;99.90
8008;DHT22;4049;49.468;11.200;2022-11-02T14:02:36;14.70;99.90
8008;DHT22;4049;49.468;11.200;2022-11-02T14:05:07;15.00;99.90
8008;DHT22;4049;49.468;11.200;2022-11-02T14:07:38;15.20;99.90
8008;DHT22;4049;49.468;11.200;2022-11-02T14:10:12;15.50;99.90
8008;DHT22;4049;49.468;11.200;2022-11-02T14:12:42;15.80;99.90
8008;DHT22;4049;49.468;11.200;2022-11-02T14:15:36;16.40;99.90
8008;DHT22;4049;49.468;11.200;2022-11-02T14:18:11;17.50;99.90
8008;DHT22;4049;49.468;11.200;2022-11-02T14:20:42;18.70;99.90
8008;DHT22;4049;49.468;11.200;2022-11-02T14:23:37;19.60;94.60
8008;DHT22;4049;49.468;11.200;2022-11-02T14:26:30;20.80;78.20
8008;DHT22;4049;49.468;11.200;2022-11-02T14:28:58;21.60;65.00
8008;DHT22;4049;49.468;11.200;2022-11-02T14:31:51;22.30;57.70
8008;DHT22;4049;49.468;11.200;2022-11-02T14:34:38;23.00;53.70
8008;DHT22;4049;49.468;11.200;2022-11-02T14:37:29;23.20;50.00
8008;DHT22;4049;49.468;11.200;2022-11-02T14:40:08;23.50;48.70
8008;DHT22;4049;49.468;11.200;2022-11-02T14:42:57;23.80;48.00
8008;DHT22;4049;49.468;11.200;2022-11-02T14:48:17;21.60;52.60
8008;DHT22;4049;49.468;11.200;2022-11-02T14:50:59;20.40;54.30
8008;DHT22;4049;49.468;11.200;2022-11-02T14:53:28;19.70;56.10
8008;DHT22;4049;49.468;11.200;2022-11-02T14:55:57;19.50;57.60
8008;DHT22;4049;49.468;11.200;2022-11-02T14:58:31;18.60;59.90
8008;DHT22;4049;49.468;11.200;2022-11-02T15:01:00;17.90;62.20
8008;DHT22;4049;49.468;11.200;2022-11-02T15:03:32;17.20;69.50
8008;DHT22;4049;49.468;11.200;2022-11-02T15:06:03;16.70;76.00
8008;DHT22;4049;49.468;11.200;2022-11-02T15:08:32;16.30;84.60
8008;DHT22;4049;49.468;11.200;2022-11-02T15:14:31;15.60;93.00
8008;DHT22;4049;49.468;11.200;2022-11-02T15:16:58;15.30;95.50
8008;DHT22;4049;49.468;11.200;2022-11-02T15:19:36;15.10;94.50
8008;DHT22;4049;49.468;11.200;2022-11-02T15:22:33;14.80;96.10
8008;DHT22;4049;49.468;11.200;2022-11-02T15:25:04;14.60;96.40
8008;DHT22;4049;49.468;11.200;2022-11-02T15:27:33;14.40;98.60
8008;DHT22;4049;49.468;11.200;2022-11-02T15:30:02;14.30;99.90
8008;DHT22;4049;49.468;11.200;2022-11-02T15:32:31;14.20;99.90
8008;DHT22;4049;49.468;11.200;2022-11-02T15:35:00;14.00;99.90
8008;DHT22;4049;49.468;11.200;2022-11-02T15:37:29;13.90;99.90
8008;DHT22;4049;49.468;11.200;2022-11-02T15:39:59;13.70;99.90
8008;DHT22;4049;49.468;11.200;2022-11-02T15:42:34;13.60;99.90
8008;DHT22;4049;49.468;11.200;2022-11-02T15:48:00;13.30;99.90
8008;DHT22;4049;49.468;11.200;2022-11-02T15:50:42;13.20;99.90
8008;DHT22;4049;49.468;11.200;2022-11-02T15:53:36;13.00;99.90
8008;DHT22;4049;49.468;11.200;2022-11-02T15:56:18;12.90;99.90
8008;DHT22;4049;49.468;11.200;2022-11-02T16:01:44;12.60;99.90
8008;DHT22;4049;49.468;11.200;2022-11-02T16:04:18;12.40;99.90
8008;DHT22;4049;49.468;11.200;2022-11-02T16:06:46;12.30;99.90
8008;DHT22;4049;49.468;11.200;2022-11-02T16:09:30;12.20;99.90
8008;DHT22;4049;49.468;11.200;2022-11-02T16:12:09;12.10;99.90
8008;DHT22;4049;49.468;11.200;2022-11-02T16:14:36;12.00;99.90
8008;DHT22;4049;49.468;11.200;2022-11-02T16:17:03;11.80;99.90
8008;DHT22;4049;49.468;11.200;2022-11-02T16:19:30;11.70;99.90
8008;DHT22;4049;49.468;11.200;2022-11-02T16:21:57;11.50;99.90
8008;DHT22;4049;49.468;11.200;2022-11-02T16:24:24;11.40;99.90
8008;DHT22;4049;49.468;11.200;2022-11-02T16:26:51;11.30;99.90
8008;DHT22;4049;49.468;11.200;2022-11-02T16:29:29;11.30;99.90
8008;DHT22;4049;49.468;11.200;2022-11-02T16:31:56;11.10;99.90
8008;DHT22;4049;49.468;11.200;2022-11-02T16:34:27;11.00;99.90
8008;DHT22;4049;49.468;11.200;2022-11-02T16:36:54;11.10;99.90